createdAt,value
2019-02-19T00:00:25.841Z,100991.97
2019-02-19T00:02:56.157Z,100988.67
2019-02-19T00:05:26.431Z,100985.77
2019-02-19T00:07:56.702Z,100986.63
2019-02-19T00:10:26.974Z,100988.45
2019-02-19T00:12:57.260Z,100986.72
2019-02-19T00:15:27.530Z,100989.16
2019-02-19T00:17:57.818Z,100982.66
2019-02-19T00:20:28.257Z,100975.79
2019-02-19T00:22:58.553Z,100979.56
2019-02-19T00:25:28.825Z,100977.38
2019-02-19T00:27:59.121Z,100981.44
2019-02-19T00:30:29.568Z,100977.16
2019-02-19T00:32:59.852Z,100973.48
2019-02-19T00:35:30.146Z,100969.45
2019-02-19T00:38:00.498Z,100972.64
2019-02-19T00:40:30.803Z,100967.23
2019-02-19T00:43:01.125Z,100961.72
2019-02-19T00:45:31.399Z,100965.14
2019-02-19T00:48:01.688Z,100960.64
2019-02-19T00:50:32.310Z,100952.37
2019-02-19T00:53:02.605Z,100957.91
2019-02-19T00:55:34.230Z,100949.50
2019-02-19T00:58:04.494Z,100949.37
2019-02-19T01:00:34.768Z,100947.06
2019-02-19T01:03:05.166Z,100946.88
2019-02-19T01:05:35.468Z,100939.95
2019-02-19T01:08:05.762Z,100940.57
2019-02-19T01:10:36.058Z,100934.33
2019-02-19T01:13:06.392Z,100931.04
2019-02-19T01:15:36.685Z,100929.80
2019-02-19T01:18:07.345Z,100924.30
2019-02-19T01:20:37.637Z,100924.99
2019-02-19T01:23:07.898Z,100924.14
2019-02-19T01:25:38.212Z,100925.39
2019-02-19T01:28:08.497Z,100922.83
2019-02-19T01:30:38.798Z,100919.91
2019-02-19T01:33:09.107Z,100918.53
2019-02-19T01:35:39.407Z,100905.55
2019-02-19T01:38:09.687Z,100903.88
2019-02-19T01:40:39.975Z,100897.38
2019-02-19T01:43:10.281Z,100892.74
2019-02-19T01:45:40.574Z,100895.80
2019-02-19T01:48:10.926Z,100884.64
2019-02-19T01:50:41.196Z,100888.34
2019-02-19T01:53:11.522Z,100884.76
2019-02-19T01:55:41.825Z,100881.62
2019-02-19T01:58:12.226Z,100883.70
2019-02-19T02:00:42.518Z,100877.31
2019-02-19T02:03:12.816Z,100877.04
2019-02-19T02:05:43.104Z,100870.98
2019-02-19T02:08:13.836Z,100866.93
2019-02-19T02:10:44.182Z,100870.86
2019-02-19T02:13:14.524Z,100867.16
2019-02-19T02:15:44.800Z,100865.56
2019-02-19T02:18:15.095Z,100859.26
2019-02-19T02:20:45.427Z,100855.28
2019-02-19T02:23:15.707Z,100854.67
2019-02-19T02:25:45.974Z,100849.95
2019-02-19T02:28:16.341Z,100853.27
2019-02-19T02:30:46.613Z,100847.16
2019-02-19T02:33:16.910Z,100852.27
2019-02-19T02:35:47.200Z,100852.39
2019-02-19T02:38:17.545Z,100853.97
2019-02-19T02:40:47.808Z,100851.66
2019-02-19T02:43:18.108Z,100844.81
2019-02-19T02:45:53.381Z,100839.18
2019-02-19T02:48:23.305Z,100842.14
2019-02-19T02:50:53.595Z,100837.13
2019-02-19T02:53:23.887Z,100835.39
2019-02-19T02:55:54.184Z,100839.03
2019-02-19T02:58:24.518Z,100840.36
2019-02-19T03:00:54.809Z,100834.38
2019-02-19T03:03:25.103Z,100845.81
2019-02-19T03:06:01.427Z,100850.17
2019-02-19T03:08:32.691Z,100845.98
2019-02-19T03:11:02.974Z,100845.75
2019-02-19T03:13:33.291Z,100836.70
2019-02-19T03:16:03.584Z,100840.07
2019-02-19T03:18:34.623Z,100838.36
2019-02-19T03:21:04.902Z,100839.70
2019-02-19T03:23:35.224Z,100837.69
2019-02-19T03:26:05.493Z,100836.61
2019-02-19T03:28:35.795Z,100834.27
2019-02-19T03:31:06.085Z,100829.66
2019-02-19T03:33:37.339Z,100824.54
2019-02-19T03:36:07.622Z,100815.00
2019-02-19T03:38:37.909Z,100813.58
2019-02-19T03:41:08.311Z,100817.20
2019-02-19T03:43:38.583Z,100818.80
2019-02-19T03:46:12.113Z,100810.23
2019-02-19T03:48:40.843Z,100814.13
2019-02-19T03:51:12.256Z,100813.76
2019-02-19T03:53:42.544Z,100820.66
2019-02-19T03:56:12.832Z,100811.55
2019-02-19T03:58:43.130Z,100814.09
2019-02-19T04:01:13.401Z,100813.88
2019-02-19T04:03:43.754Z,100809.45
2019-02-19T04:06:14.036Z,100803.98
2019-02-19T04:08:44.361Z,100805.07
2019-02-19T04:11:14.647Z,100799.72
2019-02-19T04:13:44.896Z,100799.10
2019-02-19T04:16:21.338Z,100791.39
2019-02-19T04:18:48.242Z,100785.91
2019-02-19T04:21:18.540Z,100786.19
2019-02-19T04:23:48.841Z,100783.99
2019-02-19T04:26:19.130Z,100780.66
2019-02-19T04:28:49.401Z,100780.18
2019-02-19T04:31:19.674Z,100782.22
2019-02-19T04:33:49.937Z,100785.89
2019-02-19T04:36:20.208Z,100782.48
2019-02-19T04:38:50.509Z,100782.73
2019-02-19T04:41:20.782Z,100780.27
2019-02-19T04:43:51.079Z,100776.75
2019-02-19T04:46:30.833Z,100779.44
2019-02-19T04:48:53.340Z,100777.83
2019-02-19T04:51:23.635Z,100775.87
2019-02-19T04:53:53.947Z,100772.81
2019-02-19T04:56:24.492Z,100770.39
2019-02-19T04:58:54.774Z,100770.23
2019-02-19T05:01:25.071Z,100771.59
2019-02-19T05:03:56.902Z,100771.10
2019-02-19T05:06:27.202Z,100770.00
2019-02-19T05:08:57.929Z,100767.92
2019-02-19T05:11:28.688Z,100762.42
2019-02-19T05:13:59.012Z,100759.24
2019-02-19T05:16:29.285Z,100761.31
2019-02-19T05:18:59.628Z,100765.59
2019-02-19T05:21:29.960Z,100758.87
2019-02-19T05:24:00.317Z,100757.03
2019-02-19T05:26:30.632Z,100749.93
2019-02-19T05:29:01.034Z,100754.95
2019-02-19T05:31:31.313Z,100756.42
2019-02-19T05:34:02.731Z,100752.88
2019-02-19T05:36:33.082Z,100753.25
2019-02-19T05:39:04.860Z,100755.57
2019-02-19T05:41:36.066Z,100749.94
2019-02-19T05:44:06.626Z,100750.31
2019-02-19T05:46:36.962Z,100751.05
2019-02-19T05:49:07.294Z,100756.19
2019-02-19T05:51:37.559Z,100753.98
2019-02-19T05:54:07.859Z,100754.84
2019-02-19T05:56:38.144Z,100762.17
2019-02-19T05:59:08.492Z,100763.52
2019-02-19T06:01:39.041Z,100761.55
2019-02-19T06:04:09.332Z,100758.36
2019-02-19T06:06:39.711Z,100763.63
2019-02-19T06:09:10.023Z,100776.47
2019-02-19T06:11:40.445Z,100764.85
2019-02-19T06:14:10.736Z,100764.59
2019-02-19T06:16:41.056Z,100759.66
2019-02-19T06:19:11.958Z,100758.95
2019-02-19T06:21:42.246Z,100761.97
2019-02-19T06:24:12.569Z,100766.28
2019-02-19T06:26:43.257Z,100765.97
2019-02-19T06:29:13.547Z,100769.29
2019-02-19T06:31:43.850Z,100767.78
2019-02-19T06:34:14.398Z,100770.74
2019-02-19T06:36:45.006Z,100772.33
2019-02-19T06:39:15.466Z,100768.63
2019-02-19T06:41:46.114Z,100774.88
2019-02-19T06:44:16.364Z,100773.44
2019-02-19T06:46:47.656Z,100782.60
2019-02-19T06:49:17.975Z,100778.56
2019-02-19T06:51:49.418Z,100774.42
2019-02-19T06:54:19.719Z,100775.75
2019-02-19T06:56:50.013Z,100781.98
2019-02-19T06:59:20.289Z,100776.66
2019-02-19T07:02:10.808Z,100778.08
2019-02-19T07:04:42.879Z,100779.29
2019-02-19T07:07:13.199Z,100780.72
2019-02-19T07:09:43.490Z,100786.27
2019-02-19T07:12:13.800Z,100776.45
2019-02-19T07:14:44.105Z,100779.41
2019-02-19T07:17:15.935Z,100771.34
2019-02-19T07:19:46.362Z,100776.12
2019-02-19T07:22:16.664Z,100779.66
2019-02-19T07:24:46.947Z,100774.75
2019-02-19T07:27:17.245Z,100776.58
2019-02-19T07:29:47.543Z,100776.03
2019-02-19T07:32:17.825Z,100779.23
2019-02-19T07:34:48.120Z,100764.33
2019-02-19T07:37:18.391Z,100780.77
2019-02-19T07:39:48.743Z,100770.33
2019-02-19T07:42:19.041Z,100778.56
2019-02-19T07:44:49.310Z,100773.63
2019-02-19T07:47:24.687Z,100780.88
2019-02-19T07:49:51.610Z,100774.27
2019-02-19T07:52:21.896Z,100776.97
2019-02-19T07:54:52.171Z,100780.31
2019-02-19T07:57:22.630Z,100780.19
2019-02-19T07:59:52.944Z,100779.68
2019-02-19T08:02:23.471Z,100773.69
2019-02-19T08:04:53.927Z,100772.59
2019-02-19T08:07:24.177Z,100773.53
2019-02-19T08:09:54.504Z,100774.02
2019-02-19T08:12:26.234Z,100772.55
2019-02-19T08:14:57.653Z,100769.89
2019-02-19T08:17:33.248Z,100774.39
2019-02-19T08:20:01.622Z,100770.77
2019-02-19T08:22:32.173Z,100777.45
2019-02-19T08:25:02.473Z,100776.63
2019-02-19T08:27:32.760Z,100780.27
2019-02-19T08:30:03.079Z,100781.88
2019-02-19T08:32:33.454Z,100769.16
2019-02-19T08:35:03.765Z,100770.20
2019-02-19T08:37:34.079Z,100775.70
2019-02-19T08:40:05.017Z,100771.28
2019-02-19T08:42:35.315Z,100770.84
2019-02-19T08:45:07.533Z,100771.94
2019-02-19T08:47:42.591Z,100769.16
2019-02-19T08:50:10.883Z,100764.50
2019-02-19T08:52:41.130Z,100767.09
2019-02-19T08:55:11.419Z,100759.92
2019-02-19T08:57:41.747Z,100770.03
2019-02-19T09:00:12.152Z,100771.77
2019-02-19T09:02:44.062Z,100765.78
2019-02-19T09:05:14.378Z,100773.75
2019-02-19T09:07:44.650Z,100771.33
2019-02-19T09:10:15.316Z,100773.47
2019-02-19T09:12:46.677Z,100768.34
2019-02-19T09:15:16.953Z,100767.33
2019-02-19T09:17:51.906Z,100765.03
2019-02-19T09:20:20.407Z,100771.65
2019-02-19T09:22:50.700Z,100775.96
2019-02-19T09:25:21.034Z,100762.43
2019-02-19T09:27:51.344Z,100770.84
2019-02-19T09:30:21.651Z,100767.98
2019-02-19T09:32:51.954Z,100774.47
2019-02-19T09:35:23.748Z,100778.02
2019-02-19T09:37:54.113Z,100777.59
2019-02-19T09:40:24.393Z,100777.35
2019-02-19T09:42:54.683Z,100780.29
2019-02-19T09:45:24.990Z,100790.30
2019-02-19T09:48:01.145Z,100790.06
2019-02-19T09:50:27.259Z,100790.61
2019-02-19T09:53:00.023Z,100789.49
2019-02-19T09:55:29.627Z,100789.30
2019-02-19T09:58:00.174Z,100785.33
2019-02-19T10:00:30.519Z,100788.40
2019-02-19T10:03:00.805Z,100791.16
2019-02-19T10:05:31.200Z,100790.56
2019-02-19T10:08:01.495Z,100796.48
2019-02-19T10:10:31.798Z,100790.56
2019-02-19T10:13:02.133Z,100797.23
2019-02-19T10:15:32.464Z,100793.22
2019-02-19T10:18:09.885Z,100795.33
2019-02-19T10:20:34.777Z,100795.05
2019-02-19T10:23:05.077Z,100787.75
2019-02-19T10:25:35.388Z,100793.26
2019-02-19T10:28:05.687Z,100786.77
2019-02-19T10:30:35.978Z,100778.94
2019-02-19T10:33:06.283Z,100778.75
2019-02-19T10:35:36.577Z,100782.00
2019-02-19T10:38:08.489Z,100782.74
2019-02-19T10:40:38.807Z,100786.15
2019-02-19T10:43:09.081Z,100777.70
2019-02-19T10:45:39.390Z,100775.14
2019-02-19T10:48:09.683Z,100777.70
2019-02-19T10:50:40.154Z,100777.60
2019-02-19T10:53:10.519Z,100778.48
2019-02-19T10:55:40.807Z,100767.13
2019-02-19T10:58:11.588Z,100770.84
2019-02-19T11:00:42.346Z,100770.41
2019-02-19T11:03:12.624Z,100767.08
2019-02-19T11:05:42.947Z,100760.27
2019-02-19T11:08:13.221Z,100751.87
2019-02-19T11:10:43.540Z,100747.12
2019-02-19T11:13:13.893Z,100748.87
2019-02-19T11:15:45.280Z,100739.20
2019-02-19T11:18:16.650Z,100739.56
2019-02-19T11:20:46.974Z,100744.64
2019-02-19T11:23:17.291Z,100736.98
2019-02-19T11:25:49.146Z,100734.09
2019-02-19T11:28:19.447Z,100740.20
2019-02-19T11:30:49.728Z,100735.58
2019-02-19T11:33:20.025Z,100739.38
2019-02-19T11:35:50.326Z,100745.71
2019-02-19T11:38:20.619Z,100742.66
2019-02-19T11:40:51.000Z,100741.78
2019-02-19T11:43:22.836Z,100745.45
2019-02-19T11:45:53.138Z,100742.88
2019-02-19T11:48:23.440Z,100739.30
2019-02-19T11:50:54.000Z,100737.39
2019-02-19T11:53:25.289Z,100734.47
2019-02-19T11:55:55.596Z,100731.59
2019-02-19T11:58:25.974Z,100735.20
2019-02-19T12:00:56.297Z,100733.36
2019-02-19T12:03:26.598Z,100731.45
2019-02-19T12:05:58.564Z,100737.30
2019-02-19T12:08:28.842Z,100723.95
2019-02-19T12:10:59.157Z,100721.45
2019-02-19T12:13:29.450Z,100721.94
2019-02-19T12:15:59.766Z,100722.98
2019-02-19T12:18:31.158Z,100728.27
2019-02-19T12:21:01.455Z,100729.26
2019-02-19T12:23:31.796Z,100727.91
2019-02-19T12:26:02.102Z,100719.56
2019-02-19T12:28:32.551Z,100736.34
2019-02-19T12:31:02.876Z,100734.48
2019-02-19T12:33:33.172Z,100727.17
2019-02-19T12:36:03.511Z,100733.48
2019-02-19T12:38:33.806Z,100730.80
2019-02-19T12:41:04.138Z,100726.70
2019-02-19T12:43:34.420Z,100731.59
2019-02-19T12:46:04.701Z,100737.70
2019-02-19T12:48:34.995Z,100735.55
2019-02-19T12:51:05.299Z,100740.77
2019-02-19T12:53:35.598Z,100743.41
2019-02-19T12:56:05.865Z,100742.21
2019-02-19T12:58:36.164Z,100737.05
2019-02-19T13:01:06.461Z,100744.16
2019-02-19T13:03:36.762Z,100741.60
2019-02-19T13:06:07.076Z,100740.41
2019-02-19T13:08:40.169Z,100740.11
2019-02-19T13:11:10.501Z,100737.39
2019-02-19T13:13:40.800Z,100738.17
2019-02-19T13:16:11.100Z,100743.09
2019-02-19T13:18:41.395Z,100746.13
2019-02-19T13:21:11.711Z,100751.50
2019-02-19T13:23:42.024Z,100746.73
2019-02-19T13:26:12.340Z,100752.38
2019-02-19T13:28:42.634Z,100758.45
2019-02-19T13:31:12.993Z,100756.41
2019-02-19T13:33:43.310Z,100753.05
2019-02-19T13:36:13.795Z,100759.11
2019-02-19T13:38:45.483Z,100762.60
2019-02-19T13:41:16.620Z,100764.73
2019-02-19T13:43:46.917Z,100759.27
2019-02-19T13:46:17.398Z,100764.73
2019-02-19T13:48:47.697Z,100759.38
2019-02-19T13:51:18.948Z,100760.13
2019-02-19T13:54:07.089Z,100762.17
2019-02-19T13:56:37.865Z,100768.72
2019-02-19T13:59:08.829Z,100771.08
2019-02-19T14:01:39.183Z,100770.26
2019-02-19T14:04:09.501Z,100769.98
2019-02-19T14:06:39.793Z,100766.23
2019-02-19T14:09:10.105Z,100768.46
2019-02-19T14:11:40.442Z,100774.09
2019-02-19T14:14:15.361Z,100773.55
2019-02-19T14:16:47.329Z,100769.63
2019-02-19T14:19:21.367Z,100773.41
2019-02-19T14:21:53.563Z,100776.41
2019-02-19T14:24:26.496Z,100776.26
2019-02-19T14:27:10.914Z,100780.06
2019-02-19T14:29:49.847Z,100784.62
2019-02-19T14:32:21.782Z,100785.08
2019-02-19T14:34:56.437Z,100783.16
2019-02-19T14:37:30.088Z,100785.20
2019-02-19T14:40:10.504Z,100791.83
2019-02-19T14:42:50.528Z,100790.20
2019-02-19T14:45:29.804Z,100798.91
2019-02-19T14:48:19.179Z,100802.03
2019-02-19T14:51:01.586Z,100797.97
2019-02-19T14:53:39.488Z,100793.84
2019-02-19T14:56:14.126Z,100792.66
2019-02-19T14:58:46.120Z,100784.79
2019-02-19T15:01:18.055Z,100788.36
2019-02-19T15:03:59.280Z,100782.36
2019-02-19T15:06:37.244Z,100784.38
2019-02-19T15:09:21.151Z,100785.06
2019-02-19T15:11:53.104Z,100779.00
2019-02-19T15:14:43.421Z,100773.67
2019-02-19T15:19:58.880Z,100765.52
2019-02-19T15:22:30.966Z,100758.64
2019-02-19T15:25:11.794Z,100767.70
2019-02-19T15:27:47.491Z,100779.19
2019-02-19T15:30:22.435Z,100780.19
2019-02-19T15:32:59.983Z,100781.12
2019-02-19T15:35:50.136Z,100777.48
2019-02-19T15:38:23.025Z,100785.38
2019-02-19T15:40:55.942Z,100781.52
2019-02-19T15:43:28.646Z,100775.55
2019-02-19T15:46:00.746Z,100770.06
2019-02-19T15:48:33.089Z,100770.94
2019-02-19T15:51:06.991Z,100767.07
2019-02-19T15:53:39.193Z,100775.00
2019-02-19T15:56:27.544Z,100779.84
2019-02-19T15:59:11.867Z,100776.72
2019-02-19T16:01:43.776Z,100779.72
2019-02-19T16:04:32.577Z,100775.58
2019-02-19T16:07:08.031Z,100771.74
2019-02-19T16:09:49.041Z,100776.66
2019-02-19T16:12:24.686Z,100774.46
2019-02-19T16:14:59.656Z,100773.04
2019-02-19T16:17:31.942Z,100785.91
2019-02-19T16:20:15.746Z,100788.41
2019-02-19T16:22:47.869Z,100784.99
2019-02-19T16:25:38.171Z,100790.68
2019-02-19T16:28:10.196Z,100791.04
2019-02-19T16:30:51.023Z,100797.23
2019-02-19T16:33:31.938Z,100801.94
2019-02-19T16:36:06.514Z,100803.02
2019-02-19T16:38:41.600Z,100805.70
2019-02-19T16:41:19.816Z,100816.29
2019-02-19T16:43:57.916Z,100822.05
2019-02-19T16:46:31.670Z,100820.34
2019-02-19T16:49:03.666Z,100822.69
2019-02-19T16:51:40.744Z,100830.85
2019-02-19T16:54:28.867Z,100829.28
2019-02-19T16:57:06.382Z,100831.35
2019-02-19T16:59:51.375Z,100834.91
2019-02-19T17:02:26.147Z,100832.76
2019-02-19T17:05:13.316Z,100828.98
2019-02-19T17:07:45.279Z,100839.18
2019-02-19T17:10:17.507Z,100838.47
2019-02-19T17:13:04.560Z,100838.02
2019-02-19T17:15:45.462Z,100836.92
2019-02-19T17:18:26.395Z,100842.02
2019-02-19T17:21:07.251Z,100842.87
2019-02-19T17:23:39.223Z,100840.34
2019-02-19T17:26:27.597Z,100838.32
2019-02-19T17:29:02.674Z,100838.64
2019-02-19T17:31:46.923Z,100840.13
2019-02-19T17:34:36.694Z,100843.95
2019-02-19T17:37:25.626Z,100851.33
2019-02-19T17:40:06.382Z,100852.23
2019-02-19T17:42:47.342Z,100846.16
2019-02-19T17:45:19.549Z,100850.13
2019-02-19T17:48:03.777Z,100852.51
2019-02-19T17:50:38.683Z,100851.11
2019-02-19T17:53:11.034Z,100849.58
2019-02-19T17:55:43.041Z,100855.34
2019-02-19T17:58:15.261Z,100856.88
2019-02-19T18:00:53.242Z,100856.69
2019-02-19T18:03:25.155Z,100853.76
2019-02-19T18:05:57.242Z,100850.64
2019-02-19T18:08:41.554Z,100853.53
2019-02-19T18:11:18.022Z,100856.09
2019-02-19T18:13:54.159Z,100852.19
2019-02-19T18:16:41.520Z,100851.97
2019-02-19T18:19:11.816Z,100848.68
2019-02-19T18:21:42.119Z,100853.63
2019-02-19T18:24:12.426Z,100843.91
2019-02-19T18:26:44.813Z,100852.05
2019-02-19T18:29:17.649Z,100851.78
2019-02-19T18:31:47.945Z,100847.51
2019-02-19T18:34:18.300Z,100844.71
2019-02-19T18:36:48.594Z,100847.05
2019-02-19T18:39:20.968Z,100843.95
2019-02-19T18:41:51.287Z,100844.54
2019-02-19T18:44:21.576Z,100840.67
2019-02-19T18:46:51.960Z,100842.34
2019-02-19T18:49:22.244Z,100848.41
2019-02-19T18:51:52.558Z,100843.81
2019-02-19T18:54:22.867Z,100844.98
2019-02-19T18:56:53.221Z,100847.14
2019-02-19T18:59:23.999Z,100843.45
2019-02-19T19:01:54.276Z,100846.78
2019-02-19T19:04:24.566Z,100840.27
2019-02-19T19:06:55.207Z,100841.48
2019-02-19T19:09:25.509Z,100843.05
2019-02-19T19:11:55.946Z,100843.05
2019-02-19T19:14:26.404Z,100842.16
2019-02-19T19:16:56.897Z,100839.68
2019-02-19T19:19:27.544Z,100841.80
2019-02-19T19:21:58.458Z,100843.42
2019-02-19T19:24:28.769Z,100839.27
2019-02-19T19:26:59.495Z,100830.91
2019-02-19T19:29:30.034Z,100833.33
2019-02-19T19:32:00.359Z,100838.60
2019-02-19T19:34:30.672Z,100844.14
2019-02-19T19:37:02.359Z,100845.39
2019-02-19T19:39:32.720Z,100838.73
2019-02-19T19:42:03.012Z,100844.81
2019-02-19T19:44:34.845Z,100846.61
2019-02-19T19:47:05.417Z,100847.56
2019-02-19T19:49:35.995Z,100848.77
2019-02-19T19:52:06.485Z,100849.95
2019-02-19T19:54:37.162Z,100848.50
2019-02-19T19:57:08.167Z,100836.06
2019-02-19T19:59:38.922Z,100841.38
2019-02-19T20:02:09.629Z,100832.01
2019-02-19T20:04:41.018Z,100827.95
2019-02-19T20:07:12.919Z,100828.16
2019-02-19T20:09:44.193Z,100817.00
2019-02-19T20:12:15.529Z,100823.63
2019-02-19T20:14:47.095Z,100819.91
2019-02-19T20:17:19.946Z,100828.92
2019-02-19T20:19:51.157Z,100826.17
2019-02-19T20:22:21.666Z,100825.14
2019-02-19T20:24:53.062Z,100833.20
2019-02-19T20:27:24.681Z,100830.55
2019-02-19T20:29:55.944Z,100827.80
2019-02-19T20:32:27.868Z,100823.78
2019-02-19T20:34:59.025Z,100825.38
2019-02-19T20:37:29.715Z,100819.34
2019-02-19T20:42:26.544Z,100820.41
2019-02-19T20:44:57.057Z,100817.11
2019-02-19T20:47:27.438Z,100819.51
2019-02-19T20:49:59.045Z,100813.66
2019-02-19T20:52:29.767Z,100816.30
2019-02-19T20:55:04.255Z,100813.34
2019-02-19T20:57:34.835Z,100813.34
2019-02-19T21:00:13.025Z,100819.16
2019-02-19T21:02:46.560Z,100829.25
2019-02-19T21:05:17.166Z,100832.75
2019-02-19T21:07:47.791Z,100834.09
2019-02-19T21:10:19.559Z,100831.68
2019-02-19T21:12:49.869Z,100835.45
2019-02-19T21:15:21.098Z,100842.29
2019-02-19T21:17:52.031Z,100849.66
2019-02-19T21:20:22.403Z,100845.97
2019-02-19T21:22:52.793Z,100850.23
2019-02-19T21:25:30.835Z,100852.20
2019-02-19T21:27:55.178Z,100855.75
2019-02-19T21:30:25.686Z,100857.59
2019-02-19T21:32:55.961Z,100852.27
2019-02-19T21:35:26.226Z,100848.22
2019-02-19T21:37:57.175Z,100848.23
2019-02-19T21:40:27.541Z,100845.07
2019-02-19T21:42:57.811Z,100843.53
2019-02-19T21:45:29.421Z,100844.63
2019-02-19T21:48:00.193Z,100847.81
2019-02-19T21:50:30.729Z,100846.89
2019-02-19T21:53:01.279Z,100845.73
2019-02-19T21:55:31.928Z,100849.38
2019-02-19T21:58:02.362Z,100846.59
2019-02-19T22:00:33.098Z,100846.35
2019-02-19T22:03:03.267Z,100843.42
2019-02-19T22:05:33.630Z,100848.73
2019-02-19T22:08:04.596Z,100848.81
2019-02-19T22:10:35.040Z,100860.63
2019-02-19T22:13:05.396Z,100863.67
2019-02-19T22:15:35.713Z,100867.78
2019-02-19T22:18:06.025Z,100866.12
2019-02-19T22:20:47.191Z,100869.19
2019-02-19T22:23:17.874Z,100877.02
2019-02-19T22:25:49.199Z,100884.67
2019-02-19T22:28:19.445Z,100873.14
2019-02-19T22:30:52.839Z,100878.51
2019-02-19T22:33:24.611Z,100883.02
2019-02-19T22:35:54.923Z,100892.56
2019-02-19T22:38:25.194Z,100893.89
2019-02-19T22:40:55.622Z,100891.83
2019-02-19T22:43:26.795Z,100892.06
2019-02-19T22:45:57.089Z,100899.56
2019-02-19T22:48:27.377Z,100903.61
2019-02-19T22:50:57.892Z,100905.27
2019-02-19T22:53:38.943Z,100906.12
2019-02-19T22:56:22.831Z,100907.20
2019-02-19T22:58:53.110Z,100908.57
2019-02-19T23:01:26.120Z,100917.81
2019-02-19T23:03:56.604Z,100910.58
2019-02-19T23:06:26.920Z,100912.30
2019-02-19T23:08:57.263Z,100913.05
2019-02-19T23:11:27.666Z,100910.66
2019-02-19T23:13:57.952Z,100910.87
2019-02-19T23:16:29.938Z,100919.45
2019-02-19T23:19:00.230Z,100916.11
2019-02-19T23:21:30.619Z,100915.22
2019-02-19T23:24:00.911Z,100910.84
2019-02-19T23:26:32.409Z,100925.23
2019-02-19T23:29:02.757Z,100928.69
2019-02-19T23:31:33.032Z,100932.87
2019-02-19T23:34:03.311Z,100932.04
2019-02-19T23:36:41.165Z,100943.17
2019-02-19T23:39:11.454Z,100933.77
2019-02-19T23:41:41.859Z,100939.53
2019-02-19T23:44:12.284Z,100937.17
2019-02-19T23:46:43.987Z,100935.37
2019-02-19T23:49:15.436Z,100931.91
2019-02-19T23:51:45.737Z,100933.27
2019-02-19T23:54:16.012Z,100932.52
2019-02-19T23:56:46.383Z,100932.33
2019-02-19T23:59:16.681Z,100932.95
